sensor_id;sensor_type;location;lat;lon;timestamp;temperature;humidity
70867;HTU21D;58487;53.474;49.470;2023-12-20T00:00:08;0.39;94.52
70867;HTU21D;58487;53.474;49.470;2023-12-20T00:02:34;0.32;98.65
70867;HTU21D;58487;53.474;49.470;2023-12-20T00:05:00;0.36;96.02
70867;HTU21D;58487;53.474;49.470;2023-12-20T00:07:27;0.39;92.88
70867;HTU21D;58487;53.474;49.470;2023-12-20T00:09:53;0.49;93.18
70867;HTU21D;58487;53.474;49.470;2023-12-20T00:12:19;0.51;92.73
70867;HTU21D;58487;53.474;49.470;2023-12-20T00:14:45;0.54;97.46
70867;HTU21D;58487;53.474;49.470;2023-12-20T00:17:11;0.51;93.85
70867;HTU21D;58487;53.474;49.470;2023-12-20T00:19:37;0.54;91.69
70867;HTU21D;58487;53.474;49.470;2023-12-20T00:22:03;0.57;91.27
70867;HTU21D;58487;53.474;49.470;2023-12-20T00:24:29;0.54;90.86
70867;HTU21D;58487;53.474;49.470;2023-12-20T00:26:55;0.62;91.13
70867;HTU21D;58487;53.474;49.470;2023-12-20T00:29:21;0.55;92.56
70867;HTU21D;58487;53.474;49.470;2023-12-20T00:31:47;0.55;91.40
70867;HTU21D;58487;53.474;49.470;2023-12-20T00:34:13;0.63;90.72
70867;HTU21D;58487;53.474;49.470;2023-12-20T00:36:39;0.63;90.44
70867;HTU21D;58487;53.474;49.470;2023-12-20T00:39:05;0.62;89.59
70867;HTU21D;58487;53.474;49.470;2023-12-20T00:41:34;0.69;89.64
70867;HTU21D;58487;53.474;49.470;2023-12-20T00:44:00;0.80;88.52
70867;HTU21D;58487;53.474;49.470;2023-12-20T00:46:26;0.80;88.92
70867;HTU21D;58487;53.474;49.470;2023-12-20T00:48:52;0.74;89.73
70867;HTU21D;58487;53.474;49.470;2023-12-20T00:51:18;0.82;88.67
70867;HTU21D;58487;53.474;49.470;2023-12-20T00:53:44;0.80;88.94
70867;HTU21D;58487;53.474;49.470;2023-12-20T00:56:11;0.83;88.64
70867;HTU21D;58487;53.474;49.470;2023-12-20T00:58:37;0.83;88.84
70867;HTU21D;58487;53.474;49.470;2023-12-20T01:01:03;0.94;87.58
70867;HTU21D;58487;53.474;49.470;2023-12-20T01:03:29;0.88;89.25
70867;HTU21D;58487;53.474;49.470;2023-12-20T01:05:55;0.87;89.14
70867;HTU21D;58487;53.474;49.470;2023-12-20T01:08:22;0.86;89.63
70867;HTU21D;58487;53.474;49.470;2023-12-20T01:10:48;0.83;89.60
70867;HTU21D;58487;53.474;49.470;2023-12-20T01:13:15;0.84;89.41
70867;HTU21D;58487;53.474;49.470;2023-12-20T01:15:41;0.83;90.18
70867;HTU21D;58487;53.474;49.470;2023-12-20T01:18:07;0.74;93.07
70867;HTU21D;58487;53.474;49.470;2023-12-20T01:20:33;0.80;91.74
70867;HTU21D;58487;53.474;49.470;2023-12-20T01:22:59;0.83;90.41
70867;HTU21D;58487;53.474;49.470;2023-12-20T01:25:25;0.84;90.49
70867;HTU21D;58487;53.474;49.470;2023-12-20T01:27:51;0.86;89.24
70867;HTU21D;58487;53.474;49.470;2023-12-20T01:30:17;0.88;89.58
70867;HTU21D;58487;53.474;49.470;2023-12-20T01:32:43;0.96;89.23
70867;HTU21D;58487;53.474;49.470;2023-12-20T01:35:09;0.92;88.89
70867;HTU21D;58487;53.474;49.470;2023-12-20T01:37:35;1.01;89.62
70867;HTU21D;58487;53.474;49.470;2023-12-20T01:40:01;0.90;89.76
70867;HTU21D;58487;53.474;49.470;2023-12-20T01:42:28;1.05;88.76
70867;HTU21D;58487;53.474;49.470;2023-12-20T01:44:55;0.94;89.62
70867;HTU21D;58487;53.474;49.470;2023-12-20T01:47:21;1.02;89.43
70867;HTU21D;58487;53.474;49.470;2023-12-20T01:49:48;0.94;89.63
70867;HTU21D;58487;53.474;49.470;2023-12-20T01:52:14;0.98;88.60
70867;HTU21D;58487;53.474;49.470;2023-12-20T01:54:42;1.02;93.37
70867;HTU21D;58487;53.474;49.470;2023-12-20T01:57:08;1.06;89.04
70867;HTU21D;58487;53.474;49.470;2023-12-20T01:59:35;1.06;89.79
70867;HTU21D;58487;53.474;49.470;2023-12-20T02:02:03;1.09;88.86
70867;HTU21D;58487;53.474;49.470;2023-12-20T02:04:32;1.07;89.23
70867;HTU21D;58487;53.474;49.470;2023-12-20T02:06:59;1.07;90.13
70867;HTU21D;58487;53.474;49.470;2023-12-20T02:09:25;1.06;90.47
70867;HTU21D;58487;53.474;49.470;2023-12-20T02:11:54;1.09;89.03
70867;HTU21D;58487;53.474;49.470;2023-12-20T02:14:20;1.10;89.49
70867;HTU21D;58487;53.474;49.470;2023-12-20T02:16:46;1.01;91.05
70867;HTU21D;58487;53.474;49.470;2023-12-20T02:19:15;1.10;89.70
70867;HTU21D;58487;53.474;49.470;2023-12-20T02:21:43;1.06;90.76
70867;HTU21D;58487;53.474;49.470;2023-12-20T02:24:09;1.05;91.20
70867;HTU21D;58487;53.474;49.470;2023-12-20T02:26:35;1.10;90.30
70867;HTU21D;58487;53.474;49.470;2023-12-20T02:29:02;1.12;89.44
70867;HTU21D;58487;53.474;49.470;2023-12-20T02:31:28;1.05;90.40
70867;HTU21D;58487;53.474;49.470;2023-12-20T02:33:54;1.14;89.81
70867;HTU21D;58487;53.474;49.470;2023-12-20T02:36:20;1.11;90.76
70867;HTU21D;58487;53.474;49.470;2023-12-20T02:38:46;1.07;94.20
70867;HTU21D;58487;53.474;49.470;2023-12-20T02:41:12;1.06;95.42
70867;HTU21D;58487;53.474;49.470;2023-12-20T02:43:39;0.98;94.03
70867;HTU21D;58487;53.474;49.470;2023-12-20T02:46:05;0.82;110.07
70867;HTU21D;58487;53.474;49.470;2023-12-20T02:48:31;1.05;94.78
70867;HTU21D;58487;53.474;49.470;2023-12-20T02:50:57;1.04;92.66
70867;HTU21D;58487;53.474;49.470;2023-12-20T02:53:23;1.09;110.91
70867;HTU21D;58487;53.474;49.470;2023-12-20T02:55:49;0.96;94.22
70867;HTU21D;58487;53.474;49.470;2023-12-20T02:58:15;1.17;94.35
70867;HTU21D;58487;53.474;49.470;2023-12-20T03:00:43;1.18;93.63
70867;HTU21D;58487;53.474;49.470;2023-12-20T03:03:09;1.16;107.01
70867;HTU21D;58487;53.474;49.470;2023-12-20T03:05:35;0.91;118.99
70867;HTU21D;58487;53.474;49.470;2023-12-20T03:08:02;1.11;98.58
70867;HTU21D;58487;53.474;49.470;2023-12-20T03:10:28;1.14;90.89
70867;HTU21D;58487;53.474;49.470;2023-12-20T03:12:54;1.21;92.82
70867;HTU21D;58487;53.474;49.470;2023-12-20T03:15:20;1.34;96.70
70867;HTU21D;58487;53.474;49.470;2023-12-20T03:17:46;1.25;88.27
70867;HTU21D;58487;53.474;49.470;2023-12-20T03:20:12;1.24;89.27
70867;HTU21D;58487;53.474;49.470;2023-12-20T03:22:38;1.03;90.20
70867;HTU21D;58487;53.474;49.470;2023-12-20T03:25:04;1.17;90.28
70867;HTU21D;58487;53.474;49.470;2023-12-20T03:27:30;1.20;89.40
70867;HTU21D;58487;53.474;49.470;2023-12-20T03:29:57;1.02;89.87
70867;HTU21D;58487;53.474;49.470;2023-12-20T03:32:23;1.19;90.02
70867;HTU21D;58487;53.474;49.470;2023-12-20T03:34:49;1.20;90.36
70867;HTU21D;58487;53.474;49.470;2023-12-20T03:37:15;1.16;92.44
70867;HTU21D;58487;53.474;49.470;2023-12-20T03:39:41;1.18;89.92
70867;HTU21D;58487;53.474;49.470;2023-12-20T03:42:07;1.45;90.12
70867;HTU21D;58487;53.474;49.470;2023-12-20T03:44:33;1.47;96.42
70867;HTU21D;58487;53.474;49.470;2023-12-20T03:46:59;1.45;99.00
70867;HTU21D;58487;53.474;49.470;2023-12-20T03:49:25;1.45;103.38
70867;HTU21D;58487;53.474;49.470;2023-12-20T03:51:51;1.46;98.99
70867;HTU21D;58487;53.474;49.470;2023-12-20T03:54:16;1.51;99.38
70867;HTU21D;58487;53.474;49.470;2023-12-20T03:56:42;1.51;108.63
70867;HTU21D;58487;53.474;49.470;2023-12-20T03:59:08;1.38;98.26
70867;HTU21D;58487;53.474;49.470;2023-12-20T04:01:34;1.46;101.33
70867;HTU21D;58487;53.474;49.470;2023-12-20T04:04:01;1.49;104.91
70867;HTU21D;58487;53.474;49.470;2023-12-20T04:06:27;1.38;94.29
70867;HTU21D;58487;53.474;49.470;2023-12-20T04:08:53;1.43;95.13
70867;HTU21D;58487;53.474;49.470;2023-12-20T04:11:19;1.43;118.99
70867;HTU21D;58487;53.474;49.470;2023-12-20T04:13:45;1.42;95.08
70867;HTU21D;58487;53.474;49.470;2023-12-20T04:16:13;1.49;96.56
70867;HTU21D;58487;53.474;49.470;2023-12-20T04:18:39;1.47;98.67
70867;HTU21D;58487;53.474;49.470;2023-12-20T04:21:05;1.48;97.68
70867;HTU21D;58487;53.474;49.470;2023-12-20T04:23:31;1.58;98.41
70867;HTU21D;58487;53.474;49.470;2023-12-20T04:25:57;1.51;102.96
70867;HTU21D;58487;53.474;49.470;2023-12-20T04:28:23;1.46;104.40
70867;HTU21D;58487;53.474;49.470;2023-12-20T04:30:49;1.51;102.63
70867;HTU21D;58487;53.474;49.470;2023-12-20T04:33:15;1.33;98.98
70867;HTU21D;58487;53.474;49.470;2023-12-20T04:35:41;1.32;97.24
70867;HTU21D;58487;53.474;49.470;2023-12-20T04:38:09;1.47;98.13
70867;HTU21D;58487;53.474;49.470;2023-12-20T04:40:35;1.51;100.58
70867;HTU21D;58487;53.474;49.470;2023-12-20T04:43:01;1.50;109.25
70867;HTU21D;58487;53.474;49.470;2023-12-20T04:45:27;1.33;114.77
70867;HTU21D;58487;53.474;49.470;2023-12-20T04:47:53;1.60;113.60
70867;HTU21D;58487;53.474;49.470;2023-12-20T04:50:19;1.61;107.85
70867;HTU21D;58487;53.474;49.470;2023-12-20T04:52:45;1.63;118.99
70867;HTU21D;58487;53.474;49.470;2023-12-20T04:55:11;1.35;118.99
70867;HTU21D;58487;53.474;49.470;2023-12-20T04:57:37;1.60;118.99
70867;HTU21D;58487;53.474;49.470;2023-12-20T05:00:04;1.49;118.99
70867;HTU21D;58487;53.474;49.470;2023-12-20T05:02:30;1.51;118.99
70867;HTU21D;58487;53.474;49.470;2023-12-20T05:04:56;1.45;118.99
70867;HTU21D;58487;53.474;49.470;2023-12-20T05:07:22;1.53;118.99
70867;HTU21D;58487;53.474;49.470;2023-12-20T05:09:48;1.52;118.99
70867;HTU21D;58487;53.474;49.470;2023-12-20T05:12:14;1.53;118.99
70867;HTU21D;58487;53.474;49.470;2023-12-20T05:14:40;1.43;118.99
70867;HTU21D;58487;53.474;49.470;2023-12-20T05:17:06;1.60;118.99
70867;HTU21D;58487;53.474;49.470;2023-12-20T05:19:32;1.26;118.99
70867;HTU21D;58487;53.474;49.470;2023-12-20T05:22:03;1.41;118.99
70867;HTU21D;58487;53.474;49.470;2023-12-20T05:24:29;1.64;116.17
70867;HTU21D;58487;53.474;49.470;2023-12-20T05:26:55;1.75;104.34
70867;HTU21D;58487;53.474;49.470;2023-12-20T05:29:22;1.57;118.99
70867;HTU21D;58487;53.474;49.470;2023-12-20T05:31:48;1.56;118.99
70867;HTU21D;58487;53.474;49.470;2023-12-20T05:34:14;1.73;118.99
70867;HTU21D;58487;53.474;49.470;2023-12-20T05:36:40;1.73;117.79
70867;HTU21D;58487;53.474;49.470;2023-12-20T05:39:06;1.70;118.99
70867;HTU21D;58487;53.474;49.470;2023-12-20T05:41:33;1.81;118.99
70867;HTU21D;58487;53.474;49.470;2023-12-20T05:43:59;1.75;118.99
70867;HTU21D;58487;53.474;49.470;2023-12-20T05:46:26;1.79;118.56
70867;HTU21D;58487;53.474;49.470;2023-12-20T05:48:53;1.55;106.51
70867;HTU21D;58487;53.474;49.470;2023-12-20T05:51:19;1.75;107.46
70867;HTU21D;58487;53.474;49.470;2023-12-20T05:53:45;1.71;111.99
70867;HTU21D;58487;53.474;49.470;2023-12-20T05:56:11;1.70;110.64
70867;HTU21D;58487;53.474;49.470;2023-12-20T05:58:38;1.75;110.26
70867;HTU21D;58487;53.474;49.470;2023-12-20T06:01:05;1.86;113.42
70867;HTU21D;58487;53.474;49.470;2023-12-20T06:03:31;1.80;113.09
70867;HTU21D;58487;53.474;49.470;2023-12-20T06:05:57;1.81;112.00
70867;HTU21D;58487;53.474;49.470;2023-12-20T06:08:24;1.84;112.42
70867;HTU21D;58487;53.474;49.470;2023-12-20T06:10:50;1.86;116.11
70867;HTU21D;58487;53.474;49.470;2023-12-20T06:13:16;1.81;107.98
70867;HTU21D;58487;53.474;49.470;2023-12-20T06:15:42;1.81;117.48
70867;HTU21D;58487;53.474;49.470;2023-12-20T06:18:08;1.75;118.99
70867;HTU21D;58487;53.474;49.470;2023-12-20T06:20:34;1.82;110.69
70867;HTU21D;58487;53.474;49.470;2023-12-20T06:23:00;1.73;115.21
70867;HTU21D;58487;53.474;49.470;2023-12-20T06:25:26;1.97;112.73
70867;HTU21D;58487;53.474;49.470;2023-12-20T06:27:52;1.65;116.96
70867;HTU21D;58487;53.474;49.470;2023-12-20T06:30:18;1.84;118.99
70867;HTU21D;58487;53.474;49.470;2023-12-20T06:32:44;1.64;117.35
70867;HTU21D;58487;53.474;49.470;2023-12-20T06:35:12;1.79;118.99
70867;HTU21D;58487;53.474;49.470;2023-12-20T06:37:38;1.66;111.10
70867;HTU21D;58487;53.474;49.470;2023-12-20T06:40:09;1.95;118.99
70867;HTU21D;58487;53.474;49.470;2023-12-20T06:42:36;2.12;118.99
70867;HTU21D;58487;53.474;49.470;2023-12-20T06:45:02;1.53;114.35
70867;HTU21D;58487;53.474;49.470;2023-12-20T06:47:28;1.67;118.99
70867;HTU21D;58487;53.474;49.470;2023-12-20T06:49:54;1.70;118.99
70867;HTU21D;58487;53.474;49.470;2023-12-20T06:52:20;1.79;118.99
70867;HTU21D;58487;53.474;49.470;2023-12-20T06:54:46;1.75;118.99
70867;HTU21D;58487;53.474;49.470;2023-12-20T06:57:12;1.93;118.99
70867;HTU21D;58487;53.474;49.470;2023-12-20T06:59:41;1.37;118.99
70867;HTU21D;58487;53.474;49.470;2023-12-20T07:02:08;1.51;118.99
70867;HTU21D;58487;53.474;49.470;2023-12-20T07:04:39;1.61;118.99
70867;HTU21D;58487;53.474;49.470;2023-12-20T07:07:06;1.78;118.99
70867;HTU21D;58487;53.474;49.470;2023-12-20T07:09:33;1.69;118.99
70867;HTU21D;58487;53.474;49.470;2023-12-20T07:11:59;1.76;118.99
70867;HTU21D;58487;53.474;49.470;2023-12-20T07:14:25;1.88;118.99
70867;HTU21D;58487;53.474;49.470;2023-12-20T07:16:51;1.85;118.99
70867;HTU21D;58487;53.474;49.470;2023-12-20T07:19:17;2.16;118.99
70867;HTU21D;58487;53.474;49.470;2023-12-20T07:21:43;1.41;118.99
70867;HTU21D;58487;53.474;49.470;2023-12-20T07:24:09;1.57;118.99
70867;HTU21D;58487;53.474;49.470;2023-12-20T07:26:35;1.45;118.99
70867;HTU21D;58487;53.474;49.470;2023-12-20T07:29:03;1.48;111.13
70867;HTU21D;58487;53.474;49.470;2023-12-20T07:31:30;1.49;97.93
70867;HTU21D;58487;53.474;49.470;2023-12-20T07:33:56;1.55;106.49
70867;HTU21D;58487;53.474;49.470;2023-12-20T07:36:22;1.63;93.19
70867;HTU21D;58487;53.474;49.470;2023-12-20T07:38:48;1.79;91.31
70867;HTU21D;58487;53.474;49.470;2023-12-20T07:41:14;2.19;95.68
70867;HTU21D;58487;53.474;49.470;2023-12-20T07:43:41;1.86;88.95
70867;HTU21D;58487;53.474;49.470;2023-12-20T07:46:08;2.12;93.01
70867;HTU21D;58487;53.474;49.470;2023-12-20T07:48:35;2.14;90.66
70867;HTU21D;58487;53.474;49.470;2023-12-20T07:51:02;2.26;88.57
70867;HTU21D;58487;53.474;49.470;2023-12-20T07:53:28;1.93;88.42
70867;HTU21D;58487;53.474;49.470;2023-12-20T07:55:55;2.15;89.34
70867;HTU21D;58487;53.474;49.470;2023-12-20T07:58:21;2.00;88.56
70867;HTU21D;58487;53.474;49.470;2023-12-20T08:00:48;1.77;88.16
70867;HTU21D;58487;53.474;49.470;2023-12-20T08:03:14;2.16;88.24
70867;HTU21D;58487;53.474;49.470;2023-12-20T08:05:40;1.64;91.32
70867;HTU21D;58487;53.474;49.470;2023-12-20T08:08:06;2.14;87.64
70867;HTU21D;58487;53.474;49.470;2023-12-20T08:10:33;2.15;88.23
70867;HTU21D;58487;53.474;49.470;2023-12-20T08:12:59;2.15;118.99
70867;HTU21D;58487;53.474;49.470;2023-12-20T08:15:25;2.30;87.32
70867;HTU21D;58487;53.474;49.470;2023-12-20T08:17:51;2.14;87.45
70867;HTU21D;58487;53.474;49.470;2023-12-20T08:20:17;2.44;86.54
70867;HTU21D;58487;53.474;49.470;2023-12-20T08:22:43;2.47;86.44
70867;HTU21D;58487;53.474;49.470;2023-12-20T08:25:09;2.38;86.99
70867;HTU21D;58487;53.474;49.470;2023-12-20T08:27:40;2.43;88.08
70867;HTU21D;58487;53.474;49.470;2023-12-20T08:30:08;2.45;86.71
70867;HTU21D;58487;53.474;49.470;2023-12-20T08:32:35;2.46;86.96
70867;HTU21D;58487;53.474;49.470;2023-12-20T08:35:01;2.58;87.18
70867;HTU21D;58487;53.474;49.470;2023-12-20T08:37:27;2.44;86.28
70867;HTU21D;58487;53.474;49.470;2023-12-20T08:39:53;2.38;85.92
70867;HTU21D;58487;53.474;49.470;2023-12-20T08:42:19;2.65;86.23
70867;HTU21D;58487;53.474;49.470;2023-12-20T08:44:45;2.47;86.12
70867;HTU21D;58487;53.474;49.470;2023-12-20T08:47:11;2.75;86.14
70867;HTU21D;58487;53.474;49.470;2023-12-20T08:49:39;2.24;86.45
70867;HTU21D;58487;53.474;49.470;2023-12-20T08:52:05;2.59;91.82
70867;HTU21D;58487;53.474;49.470;2023-12-20T08:54:31;2.66;86.60
70867;HTU21D;58487;53.474;49.470;2023-12-20T08:56:57;2.41;88.50
70867;HTU21D;58487;53.474;49.470;2023-12-20T08:59:23;2.55;87.28
70867;HTU21D;58487;53.474;49.470;2023-12-20T09:01:49;2.46;87.46
70867;HTU21D;58487;53.474;49.470;2023-12-20T09:04:20;2.38;87.15
70867;HTU21D;58487;53.474;49.470;2023-12-20T09:06:46;2.49;87.77
70867;HTU21D;58487;53.474;49.470;2023-12-20T09:09:12;2.28;88.01
70867;HTU21D;58487;53.474;49.470;2023-12-20T09:11:40;2.38;87.33
70867;HTU21D;58487;53.474;49.470;2023-12-20T09:14:08;2.41;87.51
70867;HTU21D;58487;53.474;49.470;2023-12-20T09:16:34;2.49;87.79
70867;HTU21D;58487;53.474;49.470;2023-12-20T09:19:00;2.57;87.51
70867;HTU21D;58487;53.474;49.470;2023-12-20T09:21:26;2.58;87.61
70867;HTU21D;58487;53.474;49.470;2023-12-20T09:23:52;2.42;87.74
70867;HTU21D;58487;53.474;49.470;2023-12-20T09:26:18;2.56;87.67
70867;HTU21D;58487;53.474;49.470;2023-12-20T09:28:45;2.36;87.64
70867;HTU21D;58487;53.474;49.470;2023-12-20T09:31:11;2.54;87.93
70867;HTU21D;58487;53.474;49.470;2023-12-20T09:33:37;2.53;87.19
70867;HTU21D;58487;53.474;49.470;2023-12-20T09:36:03;2.51;87.54
70867;HTU21D;58487;53.474;49.470;2023-12-20T09:38:29;2.26;87.48
70867;HTU21D;58487;53.474;49.470;2023-12-20T09:40:55;2.49;87.80
70867;HTU21D;58487;53.474;49.470;2023-12-20T09:43:24;2.66;87.63
70867;HTU21D;58487;53.474;49.470;2023-12-20T09:45:53;2.64;87.59
70867;HTU21D;58487;53.474;49.470;2023-12-20T09:48:19;2.59;87.36
70867;HTU21D;58487;53.474;49.470;2023-12-20T09:50:46;2.61;87.78
70867;HTU21D;58487;53.474;49.470;2023-12-20T09:53:15;2.43;87.73
70867;HTU21D;58487;53.474;49.470;2023-12-20T09:55:42;2.54;88.30
70867;HTU21D;58487;53.474;49.470;2023-12-20T09:58:08;2.49;88.18
70867;HTU21D;58487;53.474;49.470;2023-12-20T10:00:35;2.49;88.52
70867;HTU21D;58487;53.474;49.470;2023-12-20T10:03:01;2.44;88.41
70867;HTU21D;58487;53.474;49.470;2023-12-20T10:05:31;2.38;88.01
70867;HTU21D;58487;53.474;49.470;2023-12-20T10:07:59;2.47;88.55
70867;HTU21D;58487;53.474;49.470;2023-12-20T10:10:26;2.60;89.15
70867;HTU21D;58487;53.474;49.470;2023-12-20T10:13:03;2.62;88.67
70867;HTU21D;58487;53.474;49.470;2023-12-20T10:15:31;2.64;88.73
70867;HTU21D;58487;53.474;49.470;2023-12-20T10:17:57;2.54;88.89
70867;HTU21D;58487;53.474;49.470;2023-12-20T10:20:25;2.65;88.99
70867;HTU21D;58487;53.474;49.470;2023-12-20T10:22:52;2.34;89.08
70867;HTU21D;58487;53.474;49.470;2023-12-20T10:25:20;2.64;89.17
70867;HTU21D;58487;53.474;49.470;2023-12-20T10:27:46;2.58;89.25
70867;HTU21D;58487;53.474;49.470;2023-12-20T10:30:13;2.44;88.99
70867;HTU21D;58487;53.474;49.470;2023-12-20T10:32:40;2.69;89.41
70867;HTU21D;58487;53.474;49.470;2023-12-20T10:35:06;2.67;89.17
70867;HTU21D;58487;53.474;49.470;2023-12-20T10:37:37;2.54;106.48
70867;HTU21D;58487;53.474;49.470;2023-12-20T10:40:04;2.62;92.37
70867;HTU21D;58487;53.474;49.470;2023-12-20T10:42:32;2.66;90.25
70867;HTU21D;58487;53.474;49.470;2023-12-20T10:45:01;2.60;89.49
70867;HTU21D;58487;53.474;49.470;2023-12-20T10:47:28;2.60;89.59
70867;HTU21D;58487;53.474;49.470;2023-12-20T10:49:55;2.46;89.70
70867;HTU21D;58487;53.474;49.470;2023-12-20T10:52:27;2.49;90.71
70867;HTU21D;58487;53.474;49.470;2023-12-20T10:54:53;2.53;93.21
70867;HTU21D;58487;53.474;49.470;2023-12-20T10:57:20;2.59;108.82
70867;HTU21D;58487;53.474;49.470;2023-12-20T10:59:48;2.51;95.97
70867;HTU21D;58487;53.474;49.470;2023-12-20T11:02:17;2.45;99.05
70867;HTU21D;58487;53.474;49.470;2023-12-20T11:04:53;2.55;91.18
70867;HTU21D;58487;53.474;49.470;2023-12-20T11:07:33;2.51;98.77
70867;HTU21D;58487;53.474;49.470;2023-12-20T11:10:13;2.65;89.95
70867;HTU21D;58487;53.474;49.470;2023-12-20T11:12:51;2.58;89.02
70867;HTU21D;58487;53.474;49.470;2023-12-20T11:15:18;2.60;88.96
70867;HTU21D;58487;53.474;49.470;2023-12-20T11:17:45;2.60;88.99
70867;HTU21D;58487;53.474;49.470;2023-12-20T11:20:14;2.57;89.00
70867;HTU21D;58487;53.474;49.470;2023-12-20T11:22:53;2.66;89.03
70867;HTU21D;58487;53.474;49.470;2023-12-20T11:25:19;2.41;88.99
70867;HTU21D;58487;53.474;49.470;2023-12-20T11:28:06;2.57;89.25
70867;HTU21D;58487;53.474;49.470;2023-12-20T11:30:52;2.49;88.78
70867;HTU21D;58487;53.474;49.470;2023-12-20T11:33:25;2.60;88.98
70867;HTU21D;58487;53.474;49.470;2023-12-20T11:35:52;2.50;88.89
70867;HTU21D;58487;53.474;49.470;2023-12-20T11:38:21;2.55;90.06
70867;HTU21D;58487;53.474;49.470;2023-12-20T11:40:51;2.40;88.60
70867;HTU21D;58487;53.474;49.470;2023-12-20T11:43:37;2.06;88.76
70867;HTU21D;58487;53.474;49.470;2023-12-20T11:46:05;2.53;88.57
70867;HTU21D;58487;53.474;49.470;2023-12-20T11:48:37;2.66;88.45
70867;HTU21D;58487;53.474;49.470;2023-12-20T11:51:12;2.66;88.69
70867;HTU21D;58487;53.474;49.470;2023-12-20T11:53:42;2.65;88.66
70867;HTU21D;58487;53.474;49.470;2023-12-20T11:56:09;2.71;88.48
70867;HTU21D;58487;53.474;49.470;2023-12-20T11:58:38;2.57;88.59
70867;HTU21D;58487;53.474;49.470;2023-12-20T12:01:05;2.51;88.40
70867;HTU21D;58487;53.474;49.470;2023-12-20T12:03:33;2.62;88.57
70867;HTU21D;58487;53.474;49.470;2023-12-20T12:06:03;2.76;88.12
70867;HTU21D;58487;53.474;49.470;2023-12-20T12:08:30;2.61;87.79
70867;HTU21D;58487;53.474;49.470;2023-12-20T12:10:56;2.74;87.91
70867;HTU21D;58487;53.474;49.470;2023-12-20T12:13:22;2.72;87.99
70867;HTU21D;58487;53.474;49.470;2023-12-20T12:15:48;2.75;87.91
70867;HTU21D;58487;53.474;49.470;2023-12-20T12:18:16;2.49;88.31
70867;HTU21D;58487;53.474;49.470;2023-12-20T12:20:43;2.68;88.15
70867;HTU21D;58487;53.474;49.470;2023-12-20T12:23:09;2.86;88.47
70867;HTU21D;58487;53.474;49.470;2023-12-20T12:25:36;2.79;87.90
70867;HTU21D;58487;53.474;49.470;2023-12-20T12:28:05;2.58;89.05
70867;HTU21D;58487;53.474;49.470;2023-12-20T12:30:31;2.75;88.39
70867;HTU21D;58487;53.474;49.470;2023-12-20T12:32:57;2.79;87.80
70867;HTU21D;58487;53.474;49.470;2023-12-20T12:35:23;2.81;87.54
70867;HTU21D;58487;53.474;49.470;2023-12-20T12:37:51;2.87;87.25
70867;HTU21D;58487;53.474;49.470;2023-12-20T12:40:17;2.85;87.19
70867;HTU21D;58487;53.474;49.470;2023-12-20T12:42:45;2.90;87.07
70867;HTU21D;58487;53.474;49.470;2023-12-20T12:45:11;2.91;87.57
70867;HTU21D;58487;53.474;49.470;2023-12-20T12:47:37;2.88;91.63
70867;HTU21D;58487;53.474;49.470;2023-12-20T12:50:04;2.86;92.80
70867;HTU21D;58487;53.474;49.470;2023-12-20T12:52:30;2.88;94.13
70867;HTU21D;58487;53.474;49.470;2023-12-20T12:54:57;2.90;89.63
70867;HTU21D;58487;53.474;49.470;2023-12-20T12:57:23;2.86;90.48
70867;HTU21D;58487;53.474;49.470;2023-12-20T12:59:49;2.86;103.73
70867;HTU21D;58487;53.474;49.470;2023-12-20T13:02:16;2.85;93.39
70867;HTU21D;58487;53.474;49.470;2023-12-20T13:04:42;2.87;87.03
70867;HTU21D;58487;53.474;49.470;2023-12-20T13:07:10;2.88;86.98
70867;HTU21D;58487;53.474;49.470;2023-12-20T13:09:39;2.91;87.00
70867;HTU21D;58487;53.474;49.470;2023-12-20T13:12:06;2.97;86.74
70867;HTU21D;58487;53.474;49.470;2023-12-20T13:14:34;2.98;86.52
70867;HTU21D;58487;53.474;49.470;2023-12-20T13:17:01;2.91;86.96
70867;HTU21D;58487;53.474;49.470;2023-12-20T13:19:27;2.98;86.80
70867;HTU21D;58487;53.474;49.470;2023-12-20T13:21:53;3.01;87.01
70867;HTU21D;58487;53.474;49.470;2023-12-20T13:24:19;2.93;87.12
70867;HTU21D;58487;53.474;49.470;2023-12-20T13:26:45;2.96;87.19
70867;HTU21D;58487;53.474;49.470;2023-12-20T13:29:11;2.91;87.41
70867;HTU21D;58487;53.474;49.470;2023-12-20T13:31:37;2.93;87.84
70867;HTU21D;58487;53.474;49.470;2023-12-20T13:34:06;2.94;87.99
70867;HTU21D;58487;53.474;49.470;2023-12-20T13:36:32;2.94;87.82
70867;HTU21D;58487;53.474;49.470;2023-12-20T13:38:58;2.90;88.04
70867;HTU21D;58487;53.474;49.470;2023-12-20T13:41:24;2.96;87.70
70867;HTU21D;58487;53.474;49.470;2023-12-20T13:43:50;2.90;88.36
70867;HTU21D;58487;53.474;49.470;2023-12-20T13:46:16;2.85;88.38
70867;HTU21D;58487;53.474;49.470;2023-12-20T13:48:43;2.83;88.80
70867;HTU21D;58487;53.474;49.470;2023-12-20T13:51:09;2.83;89.11
70867;HTU21D;58487;53.474;49.470;2023-12-20T13:53:37;2.79;89.06
70867;HTU21D;58487;53.474;49.470;2023-12-20T13:56:04;2.85;88.53
70867;HTU21D;58487;53.474;49.470;2023-12-20T13:58:30;2.78;88.68
70867;HTU21D;58487;53.474;49.470;2023-12-20T14:00:56;2.89;88.47
70867;HTU21D;58487;53.474;49.470;2023-12-20T14:03:22;2.89;88.12
70867;HTU21D;58487;53.474;49.470;2023-12-20T14:05:48;2.90;88.28
70867;HTU21D;58487;53.474;49.470;2023-12-20T14:08:15;2.83;88.52
70867;HTU21D;58487;53.474;49.470;2023-12-20T14:10:41;2.74;88.75
70867;HTU21D;58487;53.474;49.470;2023-12-20T14:13:07;2.82;89.09
70867;HTU21D;58487;53.474;49.470;2023-12-20T14:15:33;2.78;89.60
70867;HTU21D;58487;53.474;49.470;2023-12-20T14:18:06;2.74;89.31
70867;HTU21D;58487;53.474;49.470;2023-12-20T14:20:33;2.75;89.01
70867;HTU21D;58487;53.474;49.470;2023-12-20T14:23:05;2.80;89.15
70867;HTU21D;58487;53.474;49.470;2023-12-20T14:25:31;2.78;89.00
70867;HTU21D;58487;53.474;49.470;2023-12-20T14:27:57;2.80;88.97
70867;HTU21D;58487;53.474;49.470;2023-12-20T14:30:23;2.73;89.14
70867;HTU21D;58487;53.474;49.470;2023-12-20T14:32:50;2.75;89.19
70867;HTU21D;58487;53.474;49.470;2023-12-20T14:35:16;2.74;89.21
70867;HTU21D;58487;53.474;49.470;2023-12-20T14:37:42;2.73;89.02
70867;HTU21D;58487;53.474;49.470;2023-12-20T14:40:09;2.75;89.77
70867;HTU21D;58487;53.474;49.470;2023-12-20T14:42:45;2.75;89.10
70867;HTU21D;58487;53.474;49.470;2023-12-20T14:45:11;2.79;89.18
70867;HTU21D;58487;53.474;49.470;2023-12-20T14:47:39;2.80;88.76
70867;HTU21D;58487;53.474;49.470;2023-12-20T14:50:06;2.75;89.05
70867;HTU21D;58487;53.474;49.470;2023-12-20T14:52:33;2.74;89.14
70867;HTU21D;58487;53.474;49.470;2023-12-20T14:55:00;2.72;89.17
70867;HTU21D;58487;53.474;49.470;2023-12-20T14:57:28;2.73;89.26
70867;HTU21D;58487;53.474;49.470;2023-12-20T14:59:56;2.71;89.27
70867;HTU21D;58487;53.474;49.470;2023-12-20T15:02:22;2.67;89.33
70867;HTU21D;58487;53.474;49.470;2023-12-20T15:04:48;2.66;89.59
70867;HTU21D;58487;53.474;49.470;2023-12-20T15:07:15;2.64;89.76
70867;HTU21D;58487;53.474;49.470;2023-12-20T15:09:43;2.58;89.83